Etusivu
METAR-TAF:

METAR-TAF

Lentoasemat :

Islamabad, Pakistan

Leveyspiiri: 33-32-57N, Pituuspiiri: 072-49-32E, korkeus merenpinnasta: 537 m

Tämänhetkinen sää

Tämä raportti tehtiin 20 minuuttia sitten, kello 10.55 UTC
Tuuli 8 kn lännestä
Lämpötila 20°C
Kosteus 28%
Ilmanpaine 1021 hPa
Näkyvyys: 7000 m

METAR: OPIS 061055Z 27008KT 7000 NSC 20/01 Q1021 NOSIG

Aika: 16:15 (11:15 UTC)

Sääennuste

Tämä raportti tehtiin 7 tuntia ja 45 minuuttia sitten, kello 03.30 UTC
Ennuste voimassa 06. päivästä klo 06 UTC - 07. päivään klo 12 UTC
Tuuli 10 kn lännestä
Näkyvyys: 6000 m
Ajoittain
06. päivästä klo 06 UTC - 06. päivään klo 10 UTC
Tuuli 15 kn lännestä/luoteesta puuskistuen 25 kn:hen
Näkyvyys: 7000 m
Ajoittain
07. päivästä klo 00 UTC - 07. päivään klo 04 UTC
Tuuli 6 kn lännestä/lounaasta
Näkyvyys: 3000 m
usvaa

TAF: OPIS 060330Z 0606/0712 27010KT 6000 NSC TEMPO 0606/0610 30015G25KT 7000 TEMPO 0700/0704 24006KT 3000 HZ

Säähavainnot ja -ennusteet yli 4000 lentoasemalta (METAR- ja TAF-raportit).

Käytössä olevat sääasemat on merkitty karttaan keltaisilla ja punaisilla pisteillä.

Aseta hiiri pisteen päälle nähdäksesi sääaseman nimen.

Klikkaa sitten nähdäksesi säähavainnot ja -ennusteet.

Kartan vaihtaminen: klikkaa mustalla rastilla varustettuja vihreitä pisteitä, niin voit zoomata sisään; viivalla varustettua vihreää pistettä, niin voit zoomata ulos tai vihreitä nuolia, niin pääset viereisille kartoille.


METAR-TAF: